sensor_id;sensor_type;location;lat;lon;timestamp;P1;durP1;ratioP1;P2;durP2;ratioP2
82876;SDS011;72655;47.596;7.658;2024-01-25T06:18:57;0.80;;;0.80;;
82876;SDS011;72655;47.596;7.658;2024-01-25T06:21:25;0.55;;;0.50;;
82876;SDS011;72655;47.596;7.658;2024-01-25T06:23:52;0.80;;;0.50;;
82876;SDS011;72655;47.596;7.658;2024-01-25T06:26:19;1.30;;;0.30;;
82876;SDS011;72655;47.596;7.658;2024-01-25T06:28:46;1.27;;;0.98;;
82876;SDS011;72655;47.596;7.658;2024-01-25T06:31:13;0.43;;;0.40;;
82876;SDS011;72655;47.596;7.658;2024-01-25T06:33:40;0.88;;;0.50;;
82876;SDS011;72655;47.596;7.658;2024-01-25T06:36:13;0.85;;;0.80;;
82876;SDS011;72655;47.596;7.658;2024-01-25T06:38:40;1.10;;;0.70;;
82876;SDS011;72655;47.596;7.658;2024-01-25T06:41:07;1.08;;;0.63;;
82876;SDS011;72655;47.596;7.658;2024-01-25T06:43:34;0.55;;;0.55;;
82876;SDS011;72655;47.596;7.658;2024-01-25T06:46:01;0.60;;;0.60;;
82876;SDS011;72655;47.596;7.658;2024-01-25T06:48:28;0.68;;;0.65;;
82876;SDS011;72655;47.596;7.658;2024-01-25T06:50:55;0.82;;;0.70;;
82876;SDS011;72655;47.596;7.658;2024-01-25T06:53:23;1.08;;;0.85;;
82876;SDS011;72655;47.596;7.658;2024-01-25T06:55:50;0.80;;;0.60;;
82876;SDS011;72655;47.596;7.658;2024-01-25T06:58:17;1.05;;;0.70;;
82876;SDS011;72655;47.596;7.658;2024-01-25T07:00:44;0.75;;;0.55;;
82876;SDS011;72655;47.596;7.658;2024-01-25T07:03:12;0.68;;;0.68;;
82876;SDS011;72655;47.596;7.658;2024-01-25T07:05:40;1.08;;;0.75;;
82876;SDS011;72655;47.596;7.658;2024-01-25T07:08:07;0.85;;;0.75;;
82876;SDS011;72655;47.596;7.658;2024-01-25T07:10:39;1.35;;;0.50;;
82876;SDS011;72655;47.596;7.658;2024-01-25T07:13:06;1.08;;;0.98;;
82876;SDS011;72655;47.596;7.658;2024-01-25T07:15:33;3.38;;;1.35;;
82876;SDS011;72655;47.596;7.658;2024-01-25T07:18:00;1.73;;;1.23;;
82876;SDS011;72655;47.596;7.658;2024-01-25T07:20:28;2.15;;;1.00;;
82876;SDS011;72655;47.596;7.658;2024-01-25T07:22:56;2.25;;;0.98;;
82876;SDS011;72655;47.596;7.658;2024-01-25T07:25:23;1.10;;;0.95;;
82876;SDS011;72655;47.596;7.658;2024-01-25T07:27:51;1.33;;;0.70;;
82876;SDS011;72655;47.596;7.658;2024-01-25T07:30:18;1.13;;;1.08;;
82876;SDS011;72655;47.596;7.658;2024-01-25T07:32:45;2.42;;;1.30;;
82876;SDS011;72655;47.596;7.658;2024-01-25T07:35:12;0.57;;;0.52;;
82876;SDS011;72655;47.596;7.658;2024-01-25T07:37:39;2.58;;;1.10;;
82876;SDS011;72655;47.596;7.658;2024-01-25T07:40:07;1.77;;;0.98;;
82876;SDS011;72655;47.596;7.658;2024-01-25T07:42:35;2.53;;;1.23;;
82876;SDS011;72655;47.596;7.658;2024-01-25T07:45:04;1.77;;;1.25;;
82876;SDS011;72655;47.596;7.658;2024-01-25T07:47:31;1.40;;;1.08;;
82876;SDS011;72655;47.596;7.658;2024-01-25T07:49:58;1.83;;;1.33;;
82876;SDS011;72655;47.596;7.658;2024-01-25T07:52:25;1.23;;;0.98;;
82876;SDS011;72655;47.596;7.658;2024-01-25T07:54:52;2.53;;;1.63;;
82876;SDS011;72655;47.596;7.658;2024-01-25T07:57:19;4.15;;;1.55;;
82876;SDS011;72655;47.596;7.658;2024-01-25T07:59:46;3.28;;;1.17;;
82876;SDS011;72655;47.596;7.658;2024-01-25T08:02:14;1.38;;;0.90;;
82876;SDS011;72655;47.596;7.658;2024-01-25T08:04:42;1.30;;;1.20;;
82876;SDS011;72655;47.596;7.658;2024-01-25T08:07:09;2.53;;;1.85;;
82876;SDS011;72655;47.596;7.658;2024-01-25T08:09:36;2.08;;;1.50;;
82876;SDS011;72655;47.596;7.658;2024-01-25T08:12:03;2.75;;;1.38;;
82876;SDS011;72655;47.596;7.658;2024-01-25T08:14:30;1.17;;;1.08;;
82876;SDS011;72655;47.596;7.658;2024-01-25T08:16:57;2.28;;;1.08;;
82876;SDS011;72655;47.596;7.658;2024-01-25T08:19:25;1.30;;;1.20;;
82876;SDS011;72655;47.596;7.658;2024-01-25T08:21:52;2.30;;;1.90;;
82876;SDS011;72655;47.596;7.658;2024-01-25T08:24:19;1.60;;;1.27;;
82876;SDS011;72655;47.596;7.658;2024-01-25T08:26:46;3.90;;;1.58;;
82876;SDS011;72655;47.596;7.658;2024-01-25T08:29:13;3.17;;;1.88;;
82876;SDS011;72655;47.596;7.658;2024-01-25T08:31:40;3.80;;;1.65;;
82876;SDS011;72655;47.596;7.658;2024-01-25T08:34:07;4.80;;;2.50;;
82876;SDS011;72655;47.596;7.658;2024-01-25T08:36:35;2.75;;;1.85;;
82876;SDS011;72655;47.596;7.658;2024-01-25T08:39:02;4.25;;;2.45;;
82876;SDS011;72655;47.596;7.658;2024-01-25T08:41:30;3.20;;;1.38;;
82876;SDS011;72655;47.596;7.658;2024-01-25T08:43:57;2.33;;;1.05;;
82876;SDS011;72655;47.596;7.658;2024-01-25T08:46:24;5.32;;;2.90;;
82876;SDS011;72655;47.596;7.658;2024-01-25T08:48:51;5.82;;;2.55;;
82876;SDS011;72655;47.596;7.658;2024-01-25T08:51:18;4.50;;;3.03;;
82876;SDS011;72655;47.596;7.658;2024-01-25T08:53:46;4.80;;;2.25;;
82876;SDS011;72655;47.596;7.658;2024-01-25T08:56:15;4.28;;;2.90;;
82876;SDS011;72655;47.596;7.658;2024-01-25T08:58:42;3.15;;;2.03;;
82876;SDS011;72655;47.596;7.658;2024-01-25T09:01:09;2.50;;;1.38;;
82876;SDS011;72655;47.596;7.658;2024-01-25T09:03:36;2.90;;;1.85;;
82876;SDS011;72655;47.596;7.658;2024-01-25T09:06:03;2.88;;;2.47;;
82876;SDS011;72655;47.596;7.658;2024-01-25T09:08:31;6.22;;;3.08;;
82876;SDS011;72655;47.596;7.658;2024-01-25T09:11:00;4.75;;;1.80;;
82876;SDS011;72655;47.596;7.658;2024-01-25T09:13:27;3.15;;;1.58;;
82876;SDS011;72655;47.596;7.658;2024-01-25T09:15:54;3.13;;;1.65;;
82876;SDS011;72655;47.596;7.658;2024-01-25T09:18:21;3.28;;;2.28;;
82876;SDS011;72655;47.596;7.658;2024-01-25T09:20:47;4.22;;;1.98;;
82876;SDS011;72655;47.596;7.658;2024-01-25T09:23:14;3.17;;;1.85;;
82876;SDS011;72655;47.596;7.658;2024-01-25T09:25:42;2.97;;;1.15;;
82876;SDS011;72655;47.596;7.658;2024-01-25T09:28:11;4.80;;;1.67;;
82876;SDS011;72655;47.596;7.658;2024-01-25T09:30:38;3.45;;;2.22;;
82876;SDS011;72655;47.596;7.658;2024-01-25T09:33:05;4.20;;;1.80;;
82876;SDS011;72655;47.596;7.658;2024-01-25T09:35:32;3.30;;;2.00;;
82876;SDS011;72655;47.596;7.658;2024-01-25T09:37:59;2.70;;;1.30;;
82876;SDS011;72655;47.596;7.658;2024-01-25T09:40:26;1.75;;;1.63;;
82876;SDS011;72655;47.596;7.658;2024-01-25T09:42:54;3.08;;;1.45;;
82876;SDS011;72655;47.596;7.658;2024-01-25T09:45:22;1.23;;;1.10;;
82876;SDS011;72655;47.596;7.658;2024-01-25T09:47:50;2.30;;;1.75;;
82876;SDS011;72655;47.596;7.658;2024-01-25T09:50:17;2.33;;;1.50;;
82876;SDS011;72655;47.596;7.658;2024-01-25T09:52:44;2.25;;;1.15;;
82876;SDS011;72655;47.596;7.658;2024-01-25T09:55:22;5.25;;;1.63;;
82876;SDS011;72655;47.596;7.658;2024-01-25T09:57:52;3.45;;;2.08;;
82876;SDS011;72655;47.596;7.658;2024-01-25T10:00:20;4.32;;;1.60;;
82876;SDS011;72655;47.596;7.658;2024-01-25T10:02:49;2.75;;;1.95;;
82876;SDS011;72655;47.596;7.658;2024-01-25T10:05:16;3.50;;;1.88;;
82876;SDS011;72655;47.596;7.658;2024-01-25T10:07:45;5.32;;;2.30;;
82876;SDS011;72655;47.596;7.658;2024-01-25T10:10:13;2.90;;;2.50;;
82876;SDS011;72655;47.596;7.658;2024-01-25T10:12:41;3.25;;;2.03;;
82876;SDS011;72655;47.596;7.658;2024-01-25T10:15:09;4.60;;;2.75;;
82876;SDS011;72655;47.596;7.658;2024-01-25T10:17:38;5.47;;;3.25;;
82876;SDS011;72655;47.596;7.658;2024-01-25T10:20:05;3.40;;;1.92;;
82876;SDS011;72655;47.596;7.658;2024-01-25T10:22:36;2.80;;;1.65;;
82876;SDS011;72655;47.596;7.658;2024-01-25T10:25:05;2.00;;;1.33;;
82876;SDS011;72655;47.596;7.658;2024-01-25T10:27:37;3.35;;;2.42;;
82876;SDS011;72655;47.596;7.658;2024-01-25T10:30:05;3.47;;;1.90;;
82876;SDS011;72655;47.596;7.658;2024-01-25T10:32:33;2.58;;;1.60;;
82876;SDS011;72655;47.596;7.658;2024-01-25T10:35:03;3.60;;;2.72;;
82876;SDS011;72655;47.596;7.658;2024-01-25T10:37:32;4.63;;;2.47;;
82876;SDS011;72655;47.596;7.658;2024-01-25T10:39:59;4.70;;;2.35;;
82876;SDS011;72655;47.596;7.658;2024-01-25T10:42:28;3.90;;;1.95;;
82876;SDS011;72655;47.596;7.658;2024-01-25T10:44:55;4.18;;;2.47;;
82876;SDS011;72655;47.596;7.658;2024-01-25T10:47:22;4.25;;;1.98;;
82876;SDS011;72655;47.596;7.658;2024-01-25T10:49:50;2.55;;;1.35;;
82876;SDS011;72655;47.596;7.658;2024-01-25T10:52:20;3.65;;;1.58;;
82876;SDS011;72655;47.596;7.658;2024-01-25T10:54:49;2.72;;;1.85;;
82876;SDS011;72655;47.596;7.658;2024-01-25T10:57:16;1.00;;;0.70;;
82876;SDS011;72655;47.596;7.658;2024-01-25T10:59:43;2.35;;;1.33;;
82876;SDS011;72655;47.596;7.658;2024-01-25T11:02:10;1.63;;;1.08;;
82876;SDS011;72655;47.596;7.658;2024-01-25T11:04:37;2.55;;;1.35;;
82876;SDS011;72655;47.596;7.658;2024-01-25T11:07:05;0.35;;;0.30;;
82876;SDS011;72655;47.596;7.658;2024-01-25T11:09:34;1.20;;;0.57;;
82876;SDS011;72655;47.596;7.658;2024-01-25T11:12:08;0.63;;;0.25;;
82876;SDS011;72655;47.596;7.658;2024-01-25T11:14:37;0.80;;;0.38;;
82876;SDS011;72655;47.596;7.658;2024-01-25T11:17:14;0.55;;;0.50;;
82876;SDS011;72655;47.596;7.658;2024-01-25T11:19:43;0.43;;;0.43;;
82876;SDS011;72655;47.596;7.658;2024-01-25T11:22:10;0.82;;;0.60;;
82876;SDS011;72655;47.596;7.658;2024-01-25T11:24:39;0.75;;;0.70;;
82876;SDS011;72655;47.596;7.658;2024-01-25T11:27:07;1.55;;;0.85;;
82876;SDS011;72655;47.596;7.658;2024-01-25T11:29:35;1.23;;;0.98;;
82876;SDS011;72655;47.596;7.658;2024-01-25T11:32:04;3.90;;;0.82;;
82876;SDS011;72655;47.596;7.658;2024-01-25T11:34:31;2.60;;;1.15;;
82876;SDS011;72655;47.596;7.658;2024-01-25T11:36:58;2.10;;;1.10;;
82876;SDS011;72655;47.596;7.658;2024-01-25T11:39:25;2.67;;;1.15;;
82876;SDS011;72655;47.596;7.658;2024-01-25T11:41:54;3.10;;;2.22;;
82876;SDS011;72655;47.596;7.658;2024-01-25T11:44:21;1.88;;;0.82;;
82876;SDS011;72655;47.596;7.658;2024-01-25T11:46:49;2.60;;;1.85;;
82876;SDS011;72655;47.596;7.658;2024-01-25T11:49:17;3.10;;;1.10;;
82876;SDS011;72655;47.596;7.658;2024-01-25T11:51:44;2.47;;;1.60;;
82876;SDS011;72655;47.596;7.658;2024-01-25T11:54:11;4.95;;;2.05;;
82876;SDS011;72655;47.596;7.658;2024-01-25T11:56:38;2.33;;;0.95;;
82876;SDS011;72655;47.596;7.658;2024-01-25T11:59:08;2.75;;;1.17;;
82876;SDS011;72655;47.596;7.658;2024-01-25T12:01:36;1.20;;;1.05;;
82876;SDS011;72655;47.596;7.658;2024-01-25T12:04:04;1.90;;;1.27;;
82876;SDS011;72655;47.596;7.658;2024-01-25T12:06:32;1.85;;;1.08;;
82876;SDS011;72655;47.596;7.658;2024-01-25T12:09:05;1.42;;;1.23;;
82876;SDS011;72655;47.596;7.658;2024-01-25T12:11:34;1.75;;;0.90;;
82876;SDS011;72655;47.596;7.658;2024-01-25T12:14:01;1.13;;;0.90;;
82876;SDS011;72655;47.596;7.658;2024-01-25T12:16:29;1.50;;;1.00;;
82876;SDS011;72655;47.596;7.658;2024-01-25T12:18:56;1.30;;;0.80;;
82876;SDS011;72655;47.596;7.658;2024-01-25T12:21:24;0.98;;;0.70;;
82876;SDS011;72655;47.596;7.658;2024-01-25T12:23:51;0.70;;;0.70;;
82876;SDS011;72655;47.596;7.658;2024-01-25T12:26:18;0.70;;;0.70;;
82876;SDS011;72655;47.596;7.658;2024-01-25T12:28:46;1.70;;;0.82;;
82876;SDS011;72655;47.596;7.658;2024-01-25T12:31:14;1.48;;;0.80;;
82876;SDS011;72655;47.596;7.658;2024-01-25T12:33:44;1.10;;;0.75;;
82876;SDS011;72655;47.596;7.658;2024-01-25T12:36:11;1.08;;;0.85;;
82876;SDS011;72655;47.596;7.658;2024-01-25T12:38:38;0.95;;;0.70;;
82876;SDS011;72655;47.596;7.658;2024-01-25T12:41:04;0.80;;;0.60;;
82876;SDS011;72655;47.596;7.658;2024-01-25T12:43:32;0.93;;;0.85;;
82876;SDS011;72655;47.596;7.658;2024-01-25T12:45:59;0.98;;;0.65;;
82876;SDS011;72655;47.596;7.658;2024-01-25T12:48:26;0.55;;;0.55;;
82876;SDS011;72655;47.596;7.658;2024-01-25T12:50:54;0.93;;;0.80;;
82876;SDS011;72655;47.596;7.658;2024-01-25T12:53:21;0.63;;;0.63;;
82876;SDS011;72655;47.596;7.658;2024-01-25T12:55:48;1.35;;;1.23;;
82876;SDS011;72655;47.596;7.658;2024-01-25T12:58:15;0.60;;;0.60;;
82876;SDS011;72655;47.596;7.658;2024-01-25T13:00:42;0.52;;;0.52;;
82876;SDS011;72655;47.596;7.658;2024-01-25T13:03:10;0.70;;;0.70;;
82876;SDS011;72655;47.596;7.658;2024-01-25T13:05:37;0.57;;;0.57;;
82876;SDS011;72655;47.596;7.658;2024-01-25T13:08:06;1.10;;;0.80;;
82876;SDS011;72655;47.596;7.658;2024-01-25T13:10:33;2.80;;;1.00;;
82876;SDS011;72655;47.596;7.658;2024-01-25T13:13:00;1.45;;;0.88;;
82876;SDS011;72655;47.596;7.658;2024-01-25T13:15:27;0.95;;;0.73;;
82876;SDS011;72655;47.596;7.658;2024-01-25T13:17:55;2.40;;;0.90;;
82876;SDS011;72655;47.596;7.658;2024-01-25T13:20:22;1.08;;;0.75;;
82876;SDS011;72655;47.596;7.658;2024-01-25T13:22:49;0.93;;;0.85;;
82876;SDS011;72655;47.596;7.658;2024-01-25T13:25:18;0.80;;;0.80;;
82876;SDS011;72655;47.596;7.658;2024-01-25T13:27:45;0.73;;;0.70;;
82876;SDS011;72655;47.596;7.658;2024-01-25T13:30:12;0.85;;;0.52;;
82876;SDS011;72655;47.596;7.658;2024-01-25T13:32:39;0.77;;;0.52;;
82876;SDS011;72655;47.596;7.658;2024-01-25T13:35:06;1.85;;;0.82;;
82876;SDS011;72655;47.596;7.658;2024-01-25T13:37:33;1.05;;;0.95;;
82876;SDS011;72655;47.596;7.658;2024-01-25T13:40:00;1.30;;;1.20;;
82876;SDS011;72655;47.596;7.658;2024-01-25T13:42:30;0.55;;;0.50;;
82876;SDS011;72655;47.596;7.658;2024-01-25T13:44:57;2.63;;;1.13;;
82876;SDS011;72655;47.596;7.658;2024-01-25T13:47:24;1.23;;;0.90;;
82876;SDS011;72655;47.596;7.658;2024-01-25T13:49:51;1.30;;;0.70;;
82876;SDS011;72655;47.596;7.658;2024-01-25T13:52:18;1.10;;;0.88;;
82876;SDS011;72655;47.596;7.658;2024-01-25T13:54:46;0.73;;;0.73;;
82876;SDS011;72655;47.596;7.658;2024-01-25T13:57:14;1.08;;;0.60;;
82876;SDS011;72655;47.596;7.658;2024-01-25T13:59:43;0.45;;;0.45;;
82876;SDS011;72655;47.596;7.658;2024-01-25T14:02:10;0.73;;;0.70;;
82876;SDS011;72655;47.596;7.658;2024-01-25T14:04:37;1.67;;;0.70;;
82876;SDS011;72655;47.596;7.658;2024-01-25T14:07:04;1.85;;;0.47;;
82876;SDS011;72655;47.596;7.658;2024-01-25T14:09:31;0.50;;;0.50;;
82876;SDS011;72655;47.596;7.658;2024-01-25T14:11:58;0.95;;;0.60;;
82876;SDS011;72655;47.596;7.658;2024-01-25T14:14:25;0.30;;;0.30;;
82876;SDS011;72655;47.596;7.658;2024-01-25T14:16:54;0.30;;;0.30;;
82876;SDS011;72655;47.596;7.658;2024-01-25T14:19:21;0.90;;;0.35;;
82876;SDS011;72655;47.596;7.658;2024-01-25T14:21:47;0.82;;;0.35;;
82876;SDS011;72655;47.596;7.658;2024-01-25T14:24:16;0.40;;;0.40;;
82876;SDS011;72655;47.596;7.658;2024-01-25T14:26:43;0.50;;;0.40;;
82876;SDS011;72655;47.596;7.658;2024-01-25T14:29:10;0.85;;;0.30;;
82876;SDS011;72655;47.596;7.658;2024-01-25T14:31:37;0.20;;;0.20;;
82876;SDS011;72655;47.596;7.658;2024-01-25T14:34:06;0.40;;;0.20;;
82876;SDS011;72655;47.596;7.658;2024-01-25T14:36:33;0.22;;;0.22;;
82876;SDS011;72655;47.596;7.658;2024-01-25T14:39:00;0.20;;;0.20;;
82876;SDS011;72655;47.596;7.658;2024-01-25T14:41:28;0.35;;;0.35;;
82876;SDS011;72655;47.596;7.658;2024-01-25T14:43:55;0.38;;;0.30;;
82876;SDS011;72655;47.596;7.658;2024-01-25T14:46:22;0.10;;;0.10;;
82876;SDS011;72655;47.596;7.658;2024-01-25T14:48:49;0.30;;;0.30;;
82876;SDS011;72655;47.596;7.658;2024-01-25T14:51:18;0.20;;;0.20;;
82876;SDS011;72655;47.596;7.658;2024-01-25T14:53:45;0.20;;;0.20;;
82876;SDS011;72655;47.596;7.658;2024-01-25T14:56:12;0.40;;;0.40;;
82876;SDS011;72655;47.596;7.658;2024-01-25T14:58:39;0.40;;;0.38;;
82876;SDS011;72655;47.596;7.658;2024-01-25T15:01:05;0.20;;;0.20;;
82876;SDS011;72655;47.596;7.658;2024-01-25T15:03:32;0.20;;;0.20;;
82876;SDS011;72655;47.596;7.658;2024-01-25T15:05:59;0.20;;;0.20;;
82876;SDS011;72655;47.596;7.658;2024-01-25T15:08:28;0.30;;;0.30;;
82876;SDS011;72655;47.596;7.658;2024-01-25T15:10:55;0.20;;;0.20;;
82876;SDS011;72655;47.596;7.658;2024-01-25T15:13:22;0.73;;;0.40;;
82876;SDS011;72655;47.596;7.658;2024-01-25T15:15:49;0.20;;;0.20;;
82876;SDS011;72655;47.596;7.658;2024-01-25T15:18:16;0.45;;;0.30;;
82876;SDS011;72655;47.596;7.658;2024-01-25T15:20:43;0.40;;;0.40;;
82876;SDS011;72655;47.596;7.658;2024-01-25T15:23:10;0.30;;;0.30;;
82876;SDS011;72655;47.596;7.658;2024-01-25T15:25:39;0.20;;;0.20;;
82876;SDS011;72655;47.596;7.658;2024-01-25T15:28:06;0.43;;;0.43;;
82876;SDS011;72655;47.596;7.658;2024-01-25T15:30:32;0.30;;;0.30;;
82876;SDS011;72655;47.596;7.658;2024-01-25T15:33:00;0.90;;;0.20;;
82876;SDS011;72655;47.596;7.658;2024-01-25T15:35:27;1.45;;;0.30;;
82876;SDS011;72655;47.596;7.658;2024-01-25T15:37:54;0.50;;;0.50;;
82876;SDS011;72655;47.596;7.658;2024-01-25T15:40:21;0.20;;;0.20;;
82876;SDS011;72655;47.596;7.658;2024-01-25T15:42:50;0.32;;;0.32;;
82876;SDS011;72655;47.596;7.658;2024-01-25T15:45:19;0.30;;;0.30;;
82876;SDS011;72655;47.596;7.658;2024-01-25T15:47:47;0.60;;;0.60;;
82876;SDS011;72655;47.596;7.658;2024-01-25T15:50:14;0.30;;;0.30;;
82876;SDS011;72655;47.596;7.658;2024-01-25T15:52:44;0.45;;;0.38;;
82876;SDS011;72655;47.596;7.658;2024-01-25T15:55:11;0.30;;;0.30;;
82876;SDS011;72655;47.596;7.658;2024-01-25T15:57:38;0.30;;;0.30;;
82876;SDS011;72655;47.596;7.658;2024-01-25T16:00:07;0.70;;;0.40;;
82876;SDS011;72655;47.596;7.658;2024-01-25T16:02:34;0.50;;;0.43;;
82876;SDS011;72655;47.596;7.658;2024-01-25T16:05:01;1.13;;;1.02;;
82876;SDS011;72655;47.596;7.658;2024-01-25T16:07:28;0.52;;;0.52;;
82876;SDS011;72655;47.596;7.658;2024-01-25T16:09:56;1.02;;;0.70;;
82876;SDS011;72655;47.596;7.658;2024-01-25T16:12:23;0.57;;;0.57;;
82876;SDS011;72655;47.596;7.658;2024-01-25T16:14:49;0.75;;;0.40;;
82876;SDS011;72655;47.596;7.658;2024-01-25T16:17:20;0.65;;;0.30;;
82876;SDS011;72655;47.596;7.658;2024-01-25T16:19:47;0.20;;;0.20;;
82876;SDS011;72655;47.596;7.658;2024-01-25T16:22:14;1.35;;;0.52;;
82876;SDS011;72655;47.596;7.658;2024-01-25T16:24:41;0.40;;;0.40;;
82876;SDS011;72655;47.596;7.658;2024-01-25T16:27:08;0.30;;;0.30;;
82876;SDS011;72655;47.596;7.658;2024-01-25T16:29:35;0.30;;;0.30;;
82876;SDS011;72655;47.596;7.658;2024-01-25T16:32:02;2.47;;;0.82;;
82876;SDS011;72655;47.596;7.658;2024-01-25T16:34:31;1.35;;;0.40;;
82876;SDS011;72655;47.596;7.658;2024-01-25T16:36:58;0.43;;;0.43;;
82876;SDS011;72655;47.596;7.658;2024-01-25T16:39:25;0.85;;;0.82;;
82876;SDS011;72655;47.596;7.658;2024-01-25T16:41:53;0.50;;;0.50;;
82876;SDS011;72655;47.596;7.658;2024-01-25T16:44:19;2.15;;;1.23;;
82876;SDS011;72655;47.596;7.658;2024-01-25T16:46:46;0.77;;;0.38;;
82876;SDS011;72655;47.596;7.658;2024-01-25T16:49:13;0.25;;;0.25;;
82876;SDS011;72655;47.596;7.658;2024-01-25T16:51:42;0.55;;;0.50;;
82876;SDS011;72655;47.596;7.658;2024-01-25T16:54:08;0.65;;;0.65;;
82876;SDS011;72655;47.596;7.658;2024-01-25T16:56:35;1.85;;;0.95;;
82876;SDS011;72655;47.596;7.658;2024-01-25T16:59:02;0.43;;;0.40;;
82876;SDS011;72655;47.596;7.658;2024-01-25T17:01:29;0.60;;;0.50;;
82876;SDS011;72655;47.596;7.658;2024-01-25T17:03:56;0.50;;;0.43;;
82876;SDS011;72655;47.596;7.658;2024-01-25T17:06:23;0.70;;;0.60;;
82876;SDS011;72655;47.596;7.658;2024-01-25T17:08:52;0.30;;;0.30;;
82876;SDS011;72655;47.596;7.658;2024-01-25T17:11:19;0.70;;;0.60;;
82876;SDS011;72655;47.596;7.658;2024-01-25T17:13:46;0.55;;;0.55;;
82876;SDS011;72655;47.596;7.658;2024-01-25T17:16:13;0.50;;;0.50;;
82876;SDS011;72655;47.596;7.658;2024-01-25T17:18:40;4.72;;;2.03;;
82876;SDS011;72655;47.596;7.658;2024-01-25T17:21:07;1.02;;;0.93;;
82876;SDS011;72655;47.596;7.658;2024-01-25T17:23:34;1.00;;;0.35;;
82876;SDS011;72655;47.596;7.658;2024-01-25T17:26:02;0.85;;;0.40;;
82876;SDS011;72655;47.596;7.658;2024-01-25T17:28:29;0.50;;;0.50;;
82876;SDS011;72655;47.596;7.658;2024-01-25T17:30:56;0.52;;;0.52;;
82876;SDS011;72655;47.596;7.658;2024-01-25T17:33:23;0.50;;;0.50;;
82876;SDS011;72655;47.596;7.658;2024-01-25T17:35:50;0.40;;;0.38;;
82876;SDS011;72655;47.596;7.658;2024-01-25T17:38:17;1.20;;;0.80;;
82876;SDS011;72655;47.596;7.658;2024-01-25T17:40:44;0.43;;;0.43;;
82876;SDS011;72655;47.596;7.658;2024-01-25T17:43:12;0.60;;;0.43;;
82876;SDS011;72655;47.596;7.658;2024-01-25T17:45:39;1.00;;;0.75;;
82876;SDS011;72655;47.596;7.658;2024-01-25T17:48:05;0.70;;;0.70;;
82876;SDS011;72655;47.596;7.658;2024-01-25T17:50:32;0.55;;;0.47;;
82876;SDS011;72655;47.596;7.658;2024-01-25T17:53:00;0.80;;;0.70;;
82876;SDS011;72655;47.596;7.658;2024-01-25T17:55:27;0.75;;;0.75;;
82876;SDS011;72655;47.596;7.658;2024-01-25T17:57:54;1.17;;;0.50;;
82876;SDS011;72655;47.596;7.658;2024-01-25T18:00:22;1.05;;;0.82;;
82876;SDS011;72655;47.596;7.658;2024-01-25T18:02:49;1.02;;;0.93;;
82876;SDS011;72655;47.596;7.658;2024-01-25T18:05:16;0.70;;;0.70;;
82876;SDS011;72655;47.596;7.658;2024-01-25T18:07:44;2.30;;;1.00;;
82876;SDS011;72655;47.596;7.658;2024-01-25T18:10:11;1.05;;;0.95;;
82876;SDS011;72655;47.596;7.658;2024-01-25T18:12:38;1.25;;;0.60;;
82876;SDS011;72655;47.596;7.658;2024-01-25T18:15:06;0.40;;;0.40;;
82876;SDS011;72655;47.596;7.658;2024-01-25T18:17:35;0.50;;;0.50;;
82876;SDS011;72655;47.596;7.658;2024-01-25T18:20:02;0.50;;;0.50;;
82876;SDS011;72655;47.596;7.658;2024-01-25T18:22:30;0.77;;;0.75;;
82876;SDS011;72655;47.596;7.658;2024-01-25T18:24:57;2.00;;;1.13;;
82876;SDS011;72655;47.596;7.658;2024-01-25T18:27:24;1.88;;;0.88;;
82876;SDS011;72655;47.596;7.658;2024-01-25T18:29:50;2.45;;;1.23;;
82876;SDS011;72655;47.596;7.658;2024-01-25T18:32:17;0.52;;;0.52;;
82876;SDS011;72655;47.596;7.658;2024-01-25T18:34:47;1.83;;;0.82;;
82876;SDS011;72655;47.596;7.658;2024-01-25T18:37:14;1.35;;;0.60;;
82876;SDS011;72655;47.596;7.658;2024-01-25T18:39:41;1.15;;;1.05;;
82876;SDS011;72655;47.596;7.658;2024-01-25T18:42:08;0.35;;;0.35;;
82876;SDS011;72655;47.596;7.658;2024-01-25T18:44:38;0.77;;;0.75;;
82876;SDS011;72655;47.596;7.658;2024-01-25T18:47:05;1.42;;;0.80;;
82876;SDS011;72655;47.596;7.658;2024-01-25T18:49:33;0.95;;;0.85;;
